Time;durP1;ratioP1;P1;durP2;ratioP2;P2;SDS_P1;SDS_P2;PMS_P1;PMS_P2;Temp;Humidity;BMP_temperature;BMP_pressure;BME280_temperature;BME280_humidity;BME280_pressure;Samples;Min_cycle;Max_cycle;Signal;HPM_P1;HPM_P2
2022/02/22 00:00:12;;;;;;;9.20;1.80;;;;;;;2.59;100.00;95918.09;5014852;28;20526;-74
2022/02/22 00:02:40;;;;;;;11.67;1.87;;;;;;;2.50;100.00;95926.59;5016961;28;20463;-74
2022/02/22 00:05:06;;;;;;;10.33;1.60;;;;;;;2.50;100.00;95921.41;5031525;28;20108;-74
2022/02/22 00:07:32;;;;;;;11.07;2.87;;;;;;;2.43;100.00;95915.03;5016615;28;20061;-74
2022/02/22 00:09:58;;;;;;;11.10;1.70;;;;;;;2.42;100.00;95917.75;5018429;28;20513;-73
2022/02/22 00:12:23;;;;;;;9.43;1.73;;;;;;;2.39;100.00;95910.19;5051253;28;20200;-74
2022/02/22 00:14:49;;;;;;;8.33;1.77;;;;;;;2.42;100.00;95908.19;5027879;28;20037;-74
2022/02/22 00:17:15;;;;;;;5.70;1.33;;;;;;;2.37;100.00;95920.69;5047575;28;21231;-74
2022/02/22 00:19:41;;;;;;;11.63;2.03;;;;;;;2.40;100.00;95923.03;5018142;28;20030;-76
2022/02/22 00:22:07;;;;;;;9.50;1.73;;;;;;;2.41;100.00;95923.88;5032441;28;21284;-74
2022/02/22 00:24:32;;;;;;;13.37;2.20;;;;;;;2.36;100.00;95939.78;5016592;28;20030;-75
2022/02/22 00:26:58;;;;;;;10.23;2.70;;;;;;;2.38;100.00;95943.09;5023551;28;20056;-74
2022/02/22 00:29:24;;;;;;;8.27;1.80;;;;;;;2.36;100.00;95939.78;5021719;28;20037;-74
2022/02/22 00:31:50;;;;;;;7.43;1.93;;;;;;;2.39;100.00;95944.75;5017719;28;20026;-74
2022/02/22 00:34:16;;;;;;;7.33;1.60;;;;;;;2.42;100.00;95957.50;5003228;28;20030;-74
2022/02/22 00:36:44;;;;;;;6.47;2.07;;;;;;;2.35;100.00;95964.09;5021973;28;20029;-74
2022/02/22 00:39:10;;;;;;;10.33;2.03;;;;;;;2.38;100.00;95963.03;5011540;28;20029;-74
2022/02/22 00:41:36;;;;;;;8.47;2.13;;;;;;;2.32;100.00;95964.34;5019433;28;20083;-74
2022/02/22 00:44:03;;;;;;;13.20;1.73;;;;;;;2.28;100.00;95976.72;5001989;28;20063;-73
2022/02/22 00:46:29;;;;;;;8.70;1.90;;;;;;;2.27;100.00;95969.03;5018219;28;20869;-75
2022/02/22 00:48:55;;;;;;;10.77;1.70;;;;;;;2.35;100.00;95974.47;5018764;28;20045;-74
2022/02/22 00:51:20;;;;;;;9.03;1.63;;;;;;;2.27;100.00;95984.59;5051423;28;20036;-74
2022/02/22 00:53:47;;;;;;;6.10;2.03;;;;;;;2.33;100.00;95973.75;5021055;28;20037;-74
2022/02/22 00:56:12;;;;;;;11.47;1.70;;;;;;;2.31;100.00;95986.00;5021665;28;20113;-74
2022/02/22 00:58:38;;;;;;;14.87;3.30;;;;;;;2.30;100.00;95992.97;5053409;28;20551;-74
2022/02/22 01:01:04;;;;;;;11.10;1.97;;;;;;;2.39;100.00;95988.88;5020464;28;20113;-74
2022/02/22 01:03:29;;;;;;;10.63;2.20;;;;;;;2.34;100.00;95990.97;5020444;28;20026;-74
2022/02/22 01:05:55;;;;;;;8.23;2.03;;;;;;;2.36;100.00;95999.47;5035155;28;20152;-74
2022/02/22 01:08:21;;;;;;;10.93;2.70;;;;;;;2.39;100.00;95999.25;5028651;28;20041;-74
2022/02/22 01:10:47;;;;;;;9.57;2.17;;;;;;;2.40;100.00;96002.66;5018633;28;20111;-74
2022/02/22 01:13:14;;;;;;;13.20;2.07;;;;;;;2.30;100.00;95999.94;5022760;28;20041;-74
2022/02/22 01:15:40;;;;;;;8.87;2.20;;;;;;;2.33;100.00;96007.50;5020507;28;20022;-74
2022/02/22 01:18:06;;;;;;;5.67;1.97;;;;;;;2.36;100.00;96002.06;5016575;28;20477;-75
2022/02/22 01:20:31;;;;;;;12.30;2.30;;;;;;;2.38;100.00;96010.56;5023222;28;20432;-74
2022/02/22 01:22:57;;;;;;;13.93;2.03;;;;;;;2.38;100.00;96013.16;5040009;28;20238;-74
2022/02/22 01:25:26;;;;;;;10.13;2.17;;;;;;;2.40;100.00;96019.06;5020078;28;20449;-74
2022/02/22 01:27:52;;;;;;;10.90;1.83;;;;;;;2.43;100.00;96024.03;5056685;28;20022;-74
2022/02/22 01:30:18;;;;;;;8.13;1.87;;;;;;;2.44;100.00;96024.84;5001863;28;20064;-74
2022/02/22 01:32:44;;;;;;;10.27;2.87;;;;;;;2.47;100.00;96043.63;5035565;28;20449;-74
2022/02/22 01:35:10;;;;;;;14.67;2.30;;;;;;;2.54;100.00;96041.38;5006183;28;20045;-74
2022/02/22 01:37:36;;;;;;;7.43;1.63;;;;;;;2.57;100.00;96057.56;5021266;28;20026;-74
2022/02/22 01:40:04;;;;;;;10.43;1.70;;;;;;;2.59;100.00;96054.88;5023946;28;20026;-74
2022/02/22 01:42:30;;;;;;;11.27;2.27;;;;;;;2.67;100.00;96051.69;5021155;28;20104;-75
2022/02/22 01:44:56;;;;;;;11.00;1.70;;;;;;;2.72;100.00;96047.81;5005566;28;20216;-74
2022/02/22 01:47:21;;;;;;;8.27;1.80;;;;;;;2.65;100.00;96074.34;5022331;28;20745;-74
2022/02/22 01:49:48;;;;;;;13.07;2.43;;;;;;;2.64;100.00;96067.50;5019283;28;20442;-74
2022/02/22 01:52:14;;;;;;;10.23;1.77;;;;;;;2.68;100.00;96064.53;5021038;28;20033;-74
2022/02/22 01:54:40;;;;;;;10.13;1.67;;;;;;;2.68;100.00;96074.09;5022060;28;20452;-74
2022/02/22 01:57:06;;;;;;;11.33;2.53;;;;;;;2.58;100.00;96076.56;5022795;28;20033;-74
2022/02/22 01:59:32;;;;;;;10.33;1.97;;;;;;;2.55;100.00;96082.81;5024207;28;20025;-74
2022/02/22 02:01:58;;;;;;;6.37;1.27;;;;;;;2.63;100.00;96084.03;5003872;28;20581;-73
2022/02/22 02:04:29;;;;;;;10.40;1.80;;;;;;;2.59;100.00;96089.44;5022094;28;20065;-74
2022/02/22 02:06:59;;;;;;;11.10;1.43;;;;;;;2.63;100.00;96081.44;5017376;28;20084;-74
2022/02/22 02:09:26;;;;;;;16.23;2.87;;;;;;;2.66;100.00;96083.78;5037215;28;20025;-74
2022/02/22 02:11:57;;;;;;;7.40;1.30;;;;;;;2.55;100.00;96084.59;5039527;28;20064;-74
2022/02/22 02:14:24;;;;;;;13.67;2.20;;;;;;;2.54;100.00;96088.94;5022151;28;21915;-74
2022/02/22 02:16:54;;;;;;;14.50;2.00;;;;;;;2.54;100.00;96077.72;5035830;28;20478;-74
2022/02/22 02:19:20;;;;;;;10.80;1.93;;;;;;;2.50;100.00;96084.91;5025910;28;20079;-74
2022/02/22 02:21:48;;;;;;;11.40;1.73;;;;;;;2.54;100.00;96086.34;5016998;28;20506;-74
2022/02/22 02:24:23;;;;;;;12.30;2.03;;;;;;;2.47;100.00;96103.31;5017948;28;20733;-74
2022/02/22 02:26:50;;;;;;;4.87;1.53;;;;;;;2.47;100.00;96085.16;5024751;28;20467;-74
2022/02/22 02:29:19;;;;;;;10.00;1.43;;;;;;;2.46;100.00;96091.28;5012088;28;20025;-75
2022/02/22 02:31:47;;;;;;;8.73;1.93;;;;;;;2.44;100.00;96093.16;5036655;28;20062;-74
2022/02/22 02:34:15;;;;;;;14.83;2.40;;;;;;;2.44;100.00;96106.13;5017817;28;21353;-74
2022/02/22 02:36:43;;;;;;;8.17;1.67;;;;;;;2.40;100.00;96107.31;5025708;28;20057;-73
2022/02/22 02:39:11;;;;;;;8.50;1.90;;;;;;;2.35;100.00;96109.41;5019164;28;20037;-74
2022/02/22 02:41:37;;;;;;;9.97;2.00;;;;;;;2.41;100.00;96110.72;5008778;28;20721;-74
2022/02/22 02:44:07;;;;;;;14.87;2.13;;;;;;;2.38;100.00;96109.16;5017111;28;20475;-74
2022/02/22 02:46:33;;;;;;;12.47;2.87;;;;;;;2.34;100.00;96110.34;5017017;28;20479;-74
2022/02/22 02:48:59;;;;;;;8.63;1.63;;;;;;;2.30;100.00;96122.72;5005156;28;20475;-74
2022/02/22 02:51:25;;;;;;;9.07;2.03;;;;;;;2.33;100.00;96121.66;5014823;28;20032;-74
2022/02/22 02:53:52;;;;;;;18.50;2.10;;;;;;;2.25;100.00;96130.00;5021483;28;20874;-74
2022/02/22 02:56:24;;;;;;;10.23;1.50;;;;;;;2.21;100.00;96127.72;5019197;28;20407;-73
2022/02/22 02:58:56;;;;;;;8.07;2.30;;;;;;;2.27;100.00;96140.28;5018606;28;20060;-74
2022/02/22 03:01:23;;;;;;;12.80;2.07;;;;;;;2.23;100.00;96155.22;5021791;28;20030;-74
2022/02/22 03:03:49;;;;;;;8.83;2.00;;;;;;;2.22;100.00;96155.34;5022133;28;20030;-74
2022/02/22 03:06:16;;;;;;;11.10;2.00;;;;;;;2.18;100.00;96151.31;5025807;28;20480;-74
2022/02/22 03:08:42;;;;;;;12.97;2.40;;;;;;;2.12;100.00;96158.59;5021405;28;20025;-74
2022/02/22 03:11:08;;;;;;;10.53;2.07;;;;;;;2.12;100.00;96156.00;4999584;28;20460;-74
2022/02/22 03:13:34;;;;;;;7.77;1.60;;;;;;;2.11;100.00;96156.09;5014206;28;20022;-74
2022/02/22 03:16:00;;;;;;;9.57;1.70;;;;;;;2.08;100.00;96157.16;5031685;28;20472;-74
2022/02/22 03:18:26;;;;;;;8.77;1.80;;;;;;;2.12;100.00;96165.56;5033858;28;20480;-74
2022/02/22 03:20:52;;;;;;;8.93;2.00;;;;;;;2.11;100.00;96156.94;5009513;28;20479;-73
2022/02/22 03:23:19;;;;;;;8.90;1.93;;;;;;;2.05;100.00;96152.19;4996623;28;20034;-74
2022/02/22 03:25:46;;;;;;;10.67;1.70;;;;;;;1.98;100.00;96169.13;4998813;28;20433;-74
2022/02/22 03:28:11;;;;;;;6.87;1.50;;;;;;;2.01;100.00;96158.53;5013918;28;20436;-73
2022/02/22 03:30:38;;;;;;;11.43;1.40;;;;;;;1.96;100.00;96165.81;5018201;28;20463;-75
2022/02/22 03:33:04;;;;;;;12.33;1.90;;;;;;;1.92;100.00;96179.09;5016831;28;20026;-74
2022/02/22 03:35:30;;;;;;;7.93;1.53;;;;;;;1.79;100.00;96179.13;5034067;28;21018;-74
2022/02/22 03:37:56;;;;;;;12.53;2.03;;;;;;;1.72;100.00;96181.31;5019936;28;20471;-74
2022/02/22 03:40:22;;;;;;;11.73;1.80;;;;;;;1.73;100.00;96201.13;5020024;28;20480;-74
2022/02/22 03:42:48;;;;;;;8.63;1.60;;;;;;;1.73;100.00;96189.91;5018471;28;20068;-73
2022/02/22 03:45:15;;;;;;;7.03;1.23;;;;;;;1.67;100.00;96200.69;5017991;28;20068;-74
2022/02/22 03:47:41;;;;;;;5.23;1.27;;;;;;;1.69;100.00;96202.25;5018061;28;20522;-73
2022/02/22 03:50:09;;;;;;;9.03;2.07;;;;;;;1.62;100.00;96214.81;5018339;28;20513;-73
2022/02/22 03:52:35;;;;;;;8.90;1.90;;;;;;;1.61;100.00;96217.50;5019698;28;21006;-73
2022/02/22 03:55:02;;;;;;;10.40;2.20;;;;;;;1.51;100.00;96206.97;5021708;28;20873;-73
2022/02/22 03:57:28;;;;;;;8.73;1.60;;;;;;;1.52;100.00;96224.16;5008192;28;21231;-74
2022/02/22 03:59:54;;;;;;;9.40;2.00;;;;;;;1.45;100.00;96238.47;5018733;28;20447;-74
2022/02/22 04:02:19;;;;;;;8.27;1.50;;;;;;;1.49;100.00;96229.53;5043743;28;20435;-74
2022/02/22 04:04:46;;;;;;;6.53;1.57;;;;;;;1.47;100.00;96238.34;5004397;28;20460;-74
2022/02/22 04:07:11;;;;;;;9.03;1.60;;;;;;;1.51;100.00;96232.00;5016375;28;20017;-74
2022/02/22 04:09:37;;;;;;;5.97;1.60;;;;;;;1.56;100.00;96235.97;5015417;28;20476;-73
2022/02/22 04:12:03;;;;;;;7.47;1.33;;;;;;;1.64;100.00;96244.06;4998402;28;20443;-74
2022/02/22 04:14:29;;;;;;;9.70;1.63;;;;;;;1.63;100.00;96252.75;5015725;28;20037;-75
2022/02/22 04:16:55;;;;;;;9.80;2.00;;;;;;;1.63;100.00;96250.16;5050995;28;20480;-74
2022/02/22 04:19:20;;;;;;;10.77;2.60;;;;;;;1.58;100.00;96265.22;5020834;28;20026;-74
2022/02/22 04:21:46;;;;;;;10.90;2.40;;;;;;;1.50;100.00;96264.88;5028887;28;20052;-73
2022/02/22 04:24:12;;;;;;;9.47;2.23;;;;;;;1.47;100.00;96266.84;5020102;28;20063;-74
2022/02/22 04:26:37;;;;;;;6.37;1.30;;;;;;;1.39;100.00;96275.16;5036390;28;20034;-75
2022/02/22 04:29:03;;;;;;;7.03;1.63;;;;;;;1.36;100.00;96281.34;5019243;28;20048;-74
2022/02/22 04:31:37;;;;;;;9.60;1.60;;;;;;;1.38;100.00;96286.44;5025002;28;20099;-73
2022/02/22 04:34:07;;;;;;;10.73;2.10;;;;;;;1.40;100.00;96292.34;5022245;28;20411;-74
2022/02/22 04:36:33;;;;;;;14.20;3.13;;;;;;;1.26;100.00;96303.63;5017595;28;20472;-74
2022/02/22 04:39:03;;;;;;;9.80;1.90;;;;;;;1.24;100.00;96299.47;5016569;28;21055;-73
2022/02/22 04:41:29;;;;;;;6.63;2.63;;;;;;;1.16;100.00;96300.78;5018841;28;20445;-73
2022/02/22 04:43:55;;;;;;;14.37;2.40;;;;;;;1.22;100.00;96312.53;5021830;28;20518;-73
2022/02/22 04:46:21;;;;;;;8.43;2.20;;;;;;;1.10;100.00;96316.72;5019335;28;20029;-74
2022/02/22 04:48:46;;;;;;;14.00;2.57;;;;;;;0.98;100.00;96314.94;5024137;28;20467;-74
2022/02/22 04:51:12;;;;;;;8.07;1.80;;;;;;;0.98;100.00;96316.72;5037250;28;20037;-73
2022/02/22 04:53:38;;;;;;;8.90;1.90;;;;;;;1.01;100.00;96327.69;5025273;28;20034;-74
2022/02/22 04:56:03;;;;;;;12.43;2.13;;;;;;;1.13;100.00;96332.06;5005639;28;20029;-75
2022/02/22 04:58:29;;;;;;;9.43;2.37;;;;;;;1.17;100.00;96325.78;5026648;28;20021;-74
2022/02/22 05:00:55;;;;;;;12.70;2.27;;;;;;;1.30;100.00;96323.19;5021430;28;20029;-74
2022/02/22 05:03:21;;;;;;;6.80;1.50;;;;;;;1.25;100.00;96324.47;5001665;28;20038;-73
2022/02/22 05:05:49;;;;;;;11.40;2.40;;;;;;;1.25;100.00;96329.63;5034991;28;20087;-73
2022/02/22 05:08:15;;;;;;;11.47;2.63;;;;;;;1.24;100.00;96327.94;5036904;28;20485;-73
2022/02/22 05:10:41;;;;;;;8.97;1.93;;;;;;;1.18;100.00;96340.38;5023599;28;20509;-73
2022/02/22 05:13:07;;;;;;;9.33;1.90;;;;;;;1.18;100.00;96334.38;5039001;28;20457;-73
2022/02/22 05:15:33;;;;;;;8.20;2.27;;;;;;;1.22;100.00;96342.78;5006059;28;20065;-73
2022/02/22 05:18:00;;;;;;;14.47;2.47;;;;;;;1.20;100.00;96336.84;5016735;28;20565;-73
2022/02/22 05:20:25;;;;;;;10.40;2.10;;;;;;;1.18;100.00;96337.78;5017707;28;21034;-73
2022/02/22 05:22:51;;;;;;;13.77;4.40;;;;;;;1.17;100.00;96349.09;5021677;28;21088;-73
2022/02/22 05:25:18;;;;;;;10.97;2.27;;;;;;;1.25;100.00;96350.34;5022196;28;20455;-74
2022/02/22 05:27:45;;;;;;;12.63;2.93;;;;;;;1.37;100.00;96359.91;5024023;28;21853;-73
2022/02/22 05:30:13;;;;;;;9.17;2.50;;;;;;;1.41;100.00;96353.63;5034592;28;20472;-73
2022/02/22 05:32:39;;;;;;;8.33;2.83;;;;;;;1.45;100.00;96356.84;5049213;28;21055;-73
2022/02/22 05:35:06;;;;;;;11.07;3.03;;;;;;;1.45;100.00;96347.31;5023138;28;20472;-73
2022/02/22 05:37:32;;;;;;;10.37;2.67;;;;;;;1.48;100.00;96351.47;5022282;28;20048;-73
2022/02/22 05:39:58;;;;;;;9.27;2.07;;;;;;;1.49;100.00;96358.28;5050440;28;20461;-73
2022/02/22 05:42:25;;;;;;;9.63;2.40;;;;;;;1.50;100.00;96354.75;5020132;28;20509;-73
2022/02/22 05:44:51;;;;;;;14.37;3.23;;;;;;;1.53;100.00;96354.56;5019750;28;20040;-73
2022/02/22 05:47:17;;;;;;;11.77;2.47;;;;;;;1.61;100.00;96352.28;5009277;28;20461;-73
2022/02/22 05:49:43;;;;;;;14.73;2.50;;;;;;;1.60;100.00;96356.63;5025977;28;20101;-74
2022/02/22 05:52:08;;;;;;;14.10;2.53;;;;;;;1.62;100.00;96359.16;5035368;28;20546;-73
2022/02/22 05:54:34;;;;;;;14.77;2.67;;;;;;;1.66;100.00;96370.97;5036387;28;20071;-74
2022/02/22 05:57:00;;;;;;;8.13;2.83;;;;;;;1.58;100.00;96371.47;5022866;28;20416;-74
2022/02/22 05:59:26;;;;;;;9.27;2.37;;;;;;;1.54;100.00;96380.41;5019476;28;20160;-74
2022/02/22 06:01:51;;;;;;;10.20;2.63;;;;;;;1.42;100.00;96378.59;5018994;28;20522;-74
2022/02/22 06:04:17;;;;;;;12.70;2.83;;;;;;;1.37;100.00;96376.28;5037075;28;20099;-74
2022/02/22 06:06:43;;;;;;;19.40;2.47;;;;;;;1.39;100.00;96387.38;5019995;28;20038;-74
2022/02/22 06:09:12;;;;;;;10.60;2.57;;;;;;;1.35;100.00;96393.69;5021308;28;20053;-75
2022/02/22 06:11:38;;;;;;;11.63;2.90;;;;;;;1.34;100.00;96404.16;5011350;28;20679;-74
2022/02/22 06:14:04;;;;;;;18.20;3.63;;;;;;;1.29;100.00;96403.63;5014213;28;20518;-74
2022/02/22 06:16:31;;;;;;;12.03;2.60;;;;;;;1.25;100.00;96403.00;5020736;28;20108;-74
2022/02/22 06:18:56;;;;;;;14.30;4.23;;;;;;;1.20;100.00;96404.22;5021360;28;20955;-74
2022/02/22 06:21:23;;;;;;;11.70;3.37;;;;;;;1.24;100.00;96403.94;5032726;28;20456;-74
2022/02/22 06:23:49;;;;;;;11.07;3.67;;;;;;;1.23;100.00;96415.19;5016320;28;20038;-75
2022/02/22 06:26:14;;;;;;;13.30;3.20;;;;;;;1.24;100.00;96414.28;5018687;28;20472;-74
2022/02/22 06:28:40;;;;;;;12.30;4.40;;;;;;;1.25;100.00;96421.13;5006573;28;20457;-74
2022/02/22 06:31:09;;;;;;;13.03;2.90;;;;;;;1.28;100.00;96414.94;5017519;28;20037;-75
2022/02/22 06:33:34;;;;;;;10.23;3.93;;;;;;;1.27;100.00;96428.78;5014635;28;20044;-74
2022/02/22 06:36:00;;;;;;;11.43;3.80;;;;;;;1.23;100.00;96409.19;5016101;28;20464;-75
2022/02/22 06:38:26;;;;;;;12.30;5.00;;;;;;;1.25;100.00;96415.13;5016199;28;20045;-73
2022/02/22 06:40:53;;;;;;;15.70;4.30;;;;;;;1.29;100.00;96419.19;5023423;28;20040;-74
2022/02/22 06:43:18;;;;;;;10.57;3.33;;;;;;;1.41;100.00;96423.59;5033244;28;20068;-74
2022/02/22 06:45:45;;;;;;;14.57;4.37;;;;;;;1.36;100.00;96430.81;5028942;28;20806;-74
2022/02/22 06:48:18;;;;;;;15.30;4.10;;;;;;;1.40;100.00;96427.09;5048506;28;20078;-74
2022/02/22 06:50:44;;;;;;;7.28;2.95;;;;;;;1.35;100.00;96435.16;5048706;28;21106;-75
2022/02/22 06:53:11;;;;;;;10.37;3.63;;;;;;;1.48;100.00;96439.56;5019618;28;20045;-74
2022/02/22 06:55:38;;;;;;;22.30;8.63;;;;;;;1.38;100.00;96445.34;5038355;28;20037;-74
2022/02/22 06:58:06;;;;;;;12.40;5.77;;;;;;;1.44;100.00;96438.09;5019029;28;20563;-73
2022/02/22 07:00:37;;;;;;;13.07;4.67;;;;;;;1.47;100.00;96443.06;5024725;28;20513;-74
2022/02/22 07:03:04;;;;;;;12.70;3.57;;;;;;;1.51;100.00;96445.38;5031551;28;21138;-74
2022/02/22 07:05:31;;;;;;;12.50;3.80;;;;;;;1.69;100.00;96447.72;5030419;28;20857;-74
2022/02/22 07:07:57;;;;;;;17.47;3.40;;;;;;;1.90;100.00;96454.09;5031662;28;21288;-74
2022/02/22 07:10:24;;;;;;;14.40;3.30;;;;;;;1.70;100.00;96459.75;5027919;28;20477;-74
2022/02/22 07:12:50;;;;;;;13.07;4.33;;;;;;;1.58;100.00;96463.97;5019721;28;20491;-74
2022/02/22 07:15:16;;;;;;;12.90;3.37;;;;;;;1.65;100.00;96471.25;5066878;28;20522;-73
2022/02/22 07:17:51;;;;;;;9.53;3.03;;;;;;;1.56;100.00;96489.97;5029766;28;20047;-74
2022/02/22 07:20:19;;;;;;;9.10;2.80;;;;;;;1.72;100.00;96494.19;5015106;28;20129;-74
2022/02/22 07:22:46;;;;;;;8.90;3.03;;;;;;;1.61;100.00;96500.03;5044021;28;20963;-75
2022/02/22 07:25:13;;;;;;;10.07;3.83;;;;;;;1.58;100.00;96521.00;5026816;28;20462;-74
2022/02/22 07:27:39;;;;;;;14.93;4.57;;;;;;;1.53;100.00;96510.06;5034470;28;21055;-74
2022/02/22 07:30:07;;;;;;;12.93;3.63;;;;;;;1.57;100.00;96522.72;5061376;28;20432;-74
2022/02/22 07:32:34;;;;;;;15.13;4.03;;;;;;;2.19;100.00;96516.22;5041878;28;21135;-74
2022/02/22 07:35:00;;;;;;;9.33;3.30;;;;;;;2.68;100.00;96507.72;5007580;28;20985;-73
2022/02/22 07:37:26;;;;;;;11.00;2.90;;;;;;;2.96;100.00;96504.91;5047943;28;20558;-74
2022/02/22 07:39:51;;;;;;;14.17;4.03;;;;;;;3.17;100.00;96525.16;5040680;28;20029;-74
2022/02/22 07:42:17;;;;;;;11.70;4.27;;;;;;;3.08;100.00;96534.41;5006595;28;20037;-74
2022/02/22 07:44:43;;;;;;;13.47;4.57;;;;;;;3.35;100.00;96538.63;5027126;28;20097;-74
2022/02/22 07:47:09;;;;;;;13.40;3.90;;;;;;;3.74;100.00;96550.59;5043222;28;20063;-74
2022/02/22 07:49:34;;;;;;;10.73;3.97;;;;;;;3.61;100.00;96558.44;5041922;28;20081;-74
2022/02/22 07:52:00;;;;;;;11.93;2.43;;;;;;;3.47;100.00;96551.59;5036252;28;20122;-75
2022/02/22 07:54:26;;;;;;;10.60;2.70;;;;;;;4.02;100.00;96562.44;5040684;28;20033;-75
2022/02/22 07:56:52;;;;;;;10.13;2.47;;;;;;;4.30;100.00;96566.50;5033643;28;20108;-75
2022/02/22 07:59:17;;;;;;;8.07;2.00;;;;;;;3.33;100.00;96580.34;5044561;28;20475;-74
2022/02/22 08:01:43;;;;;;;11.80;3.47;;;;;;;3.29;100.00;96584.09;5046943;28;20033;-74
2022/02/22 08:04:09;;;;;;;10.43;2.40;;;;;;;2.98;100.00;96599.16;5030892;28;20029;-76
2022/02/22 08:06:34;;;;;;;11.23;2.67;;;;;;;2.91;100.00;96610.06;5040299;28;20086;-74
2022/02/22 08:09:00;;;;;;;15.30;3.47;;;;;;;2.79;100.00;96604.78;5036705;28;20060;-73
2022/02/22 08:11:29;;;;;;;13.67;2.83;;;;;;;2.83;100.00;96608.00;5032449;28;20116;-75
2022/02/22 08:13:55;;;;;;;10.43;2.80;;;;;;;2.62;100.00;96612.03;5038012;28;20603;-74
2022/02/22 08:16:21;;;;;;;14.50;4.20;;;;;;;2.51;100.00;96616.13;5018977;28;20064;-75
2022/02/22 08:18:47;;;;;;;12.47;3.07;;;;;;;2.59;100.00;96623.44;5049047;28;20101;-74
2022/02/22 08:21:13;;;;;;;9.27;2.60;;;;;;;2.57;100.00;96613.13;5014971;28;20080;-74
2022/02/22 08:23:38;;;;;;;11.53;2.77;;;;;;;2.76;100.00;96627.50;5029335;28;20067;-74
2022/02/22 08:26:04;;;;;;;13.73;2.80;;;;;;;2.77;100.00;96636.97;5040183;28;20032;-74
2022/02/22 08:28:30;;;;;;;9.33;2.77;;;;;;;2.89;100.00;96633.56;5039880;28;20049;-74
2022/02/22 08:30:57;;;;;;;11.80;2.70;;;;;;;2.91;100.00;96636.03;5042150;28;20064;-74
2022/02/22 08:33:23;;;;;;;8.87;2.83;;;;;;;3.62;100.00;96637.28;5036958;28;20028;-74
2022/02/22 08:35:49;;;;;;;10.63;2.50;;;;;;;3.86;100.00;96637.34;5027785;28;20033;-73
2022/02/22 08:38:15;;;;;;;9.17;1.83;;;;;;;3.70;100.00;96648.00;5018596;28;20052;-74
2022/02/22 08:40:40;;;;;;;12.53;2.80;;;;;;;3.67;100.00;96643.81;5034865;28;20112;-74
2022/02/22 08:43:06;;;;;;;11.27;2.73;;;;;;;3.42;100.00;96647.31;5046154;28;20029;-74
2022/02/22 08:45:32;;;;;;;11.70;3.60;;;;;;;3.44;100.00;96653.22;5035998;28;20519;-74
2022/02/22 08:47:57;;;;;;;12.10;3.10;;;;;;;3.24;100.00;96653.75;5029707;28;20109;-74
2022/02/22 08:50:25;;;;;;;12.17;3.17;;;;;;;3.18;100.00;96662.78;5007143;28;20037;-74
2022/02/22 08:52:50;;;;;;;17.47;3.17;;;;;;;3.24;100.00;96659.75;5030510;28;20044;-74
2022/02/22 08:55:16;;;;;;;11.70;2.53;;;;;;;3.26;100.00;96665.69;5051663;28;20075;-74
2022/02/22 08:57:42;;;;;;;11.83;2.23;;;;;;;3.26;100.00;96670.91;5050304;28;20029;-74
2022/02/22 09:00:10;;;;;;;14.50;3.57;;;;;;;3.78;100.00;96682.91;5037903;28;20028;-74
2022/02/22 09:02:37;;;;;;;11.87;2.90;;;;;;;3.77;100.00;96688.25;5049643;28;20040;-74
2022/02/22 09:05:04;;;;;;;15.20;2.90;;;;;;;4.00;100.00;96684.03;5020084;28;20040;-74
2022/02/22 09:07:30;;;;;;;9.70;3.03;;;;;;;3.69;100.00;96680.97;5038843;28;20567;-74
2022/02/22 09:09:55;;;;;;;13.30;2.70;;;;;;;3.88;100.00;96677.91;5051388;28;20040;-74
2022/02/22 09:12:21;;;;;;;10.60;2.27;;;;;;;4.04;100.00;96680.28;5042417;28;20527;-74
2022/02/22 09:14:47;;;;;;;11.17;2.37;;;;;;;3.95;100.00;96686.94;5026563;28;20115;-74
2022/02/22 09:17:13;;;;;;;8.93;2.60;;;;;;;3.94;100.00;96690.50;5041901;28;20041;-74
2022/02/22 09:19:38;;;;;;;11.77;3.00;;;;;;;4.17;100.00;96691.50;5046612;28;20036;-75
2022/02/22 09:22:04;;;;;;;12.00;4.07;;;;;;;4.66;100.00;96697.56;5028984;28;20036;-74
2022/02/22 09:24:30;;;;;;;9.67;2.37;;;;;;;5.59;99.04;96681.94;5044085;28;20036;-74
2022/02/22 09:26:56;;;;;;;7.60;1.90;;;;;;;5.72;97.29;96692.28;5028624;28;20060;-74
2022/02/22 09:29:22;;;;;;;16.63;3.03;;;;;;;5.07;100.00;96698.91;5037875;28;20093;-74
2022/02/22 09:31:49;;;;;;;11.67;2.37;;;;;;;4.52;100.00;96700.31;5040752;28;20060;-74
2022/02/22 09:34:18;;;;;;;9.30;2.40;;;;;;;4.09;100.00;96703.38;5025586;28;20044;-74
2022/02/22 09:36:44;;;;;;;8.23;2.13;;;;;;;3.92;100.00;96710.63;5041182;28;20044;-74
2022/02/22 09:39:09;;;;;;;12.77;1.90;;;;;;;3.71;100.00;96705.09;5040406;28;20516;-74
2022/02/22 09:41:36;;;;;;;11.53;2.63;;;;;;;3.81;100.00;96705.31;5049712;28;20055;-74
2022/02/22 09:44:02;;;;;;;14.53;2.20;;;;;;;3.73;100.00;96708.44;5028277;28;20038;-74
2022/02/22 09:46:30;;;;;;;12.00;2.97;;;;;;;3.71;100.00;96709.47;5021508;28;20034;-74
2022/02/22 09:48:56;;;;;;;15.00;3.10;;;;;;;3.65;100.00;96700.31;5019485;28;20030;-74
2022/02/22 09:51:21;;;;;;;11.83;2.47;;;;;;;3.92;100.00;96708.00;5033765;28;20046;-74
2022/02/22 09:53:47;;;;;;;11.83;2.40;;;;;;;4.84;100.00;96700.59;5038486;28;20584;-75
2022/02/22 09:56:13;;;;;;;8.67;2.70;;;;;;;4.75;100.00;96696.88;5026750;28;20047;-74
2022/02/22 09:58:39;;;;;;;9.20;2.00;;;;;;;4.61;100.00;96705.72;5043226;28;20017;-75
2022/02/22 10:01:05;;;;;;;10.83;2.60;;;;;;;5.00;100.00;96700.28;5026561;28;20624;-74
2022/02/22 10:03:30;;;;;;;13.67;2.73;;;;;;;6.45;91.56;96686.53;5040788;28;20192;-74
2022/02/22 10:06:01;;;;;;;11.73;5.37;;;;;;;5.99;94.26;96694.56;5012405;28;21345;-74
2022/02/22 10:08:29;;;;;;;8.10;1.90;;;;;;;6.42;89.31;96681.56;5019016;28;20033;-77
2022/02/22 10:11:11;;;;;;;8.90;2.50;;;;;;;6.17;88.84;96698.34;5003619;28;20025;-75
2022/02/22 10:13:37;;;;;;;13.90;2.20;;;;;;;5.60;92.80;96709.69;5001751;28;21265;-75
2022/02/22 10:16:12;;;;;;;10.50;2.40;;;;;;;5.10;95.35;96709.13;5022052;28;20045;-75
2022/02/22 10:18:54;;;;;;;7.70;1.80;;;;;;;5.03;97.13;96713.09;5025291;28;20021;-75
2022/02/22 10:21:22;;;;;;;13.20;2.27;;;;;;;5.13;96.99;96706.25;5023337;28;20029;-75
2022/02/22 10:23:48;;;;;;;12.20;2.40;;;;;;;5.11;95.81;96705.56;5035281;28;20033;-75
2022/02/22 10:26:23;;;;;;;8.00;1.87;;;;;;;5.25;91.27;96697.53;5030001;28;20116;-75
2022/02/22 10:28:49;;;;;;;12.33;2.37;;;;;;;6.55;88.73;96690.06;5040496;28;20060;-73
2022/02/22 10:31:15;;;;;;;10.03;2.10;;;;;;;6.32;85.54;96686.69;5011428;28;20072;-74
2022/02/22 10:33:45;;;;;;;9.73;2.43;;;;;;;6.32;89.32;96685.84;5036819;28;21004;-75
2022/02/22 10:36:18;;;;;;;7.90;1.83;;;;;;;6.30;85.56;96685.97;5020323;28;20044;-75
2022/02/22 10:38:44;;;;;;;9.23;2.67;;;;;;;5.86;87.21;96692.03;5020496;28;20488;-75
2022/02/22 10:41:16;;;;;;;8.30;2.03;;;;;;;5.83;87.93;96692.25;5034556;28;20061;-75
2022/02/22 10:43:49;;;;;;;12.53;2.70;;;;;;;5.38;89.54;96693.06;5015806;28;20033;-74
2022/02/22 10:46:14;;;;;;;9.27;1.95;;;;;;;5.53;91.81;96692.84;5019892;28;20026;-74
2022/02/22 10:48:42;;;;;;;9.47;1.90;;;;;;;5.32;92.90;96696.13;5015895;28;20029;-74
2022/02/22 10:51:14;;;;;;;7.77;2.20;;;;;;;5.25;94.35;96702.75;5019588;28;20029;-74
2022/02/22 10:53:45;;;;;;;4.73;1.60;;;;;;;5.35;95.67;96693.28;5018063;28;20049;-74
2022/02/22 10:56:14;;;;;;;10.20;2.03;;;;;;;5.91;94.39;96693.34;5020785;28;20469;-76
2022/02/22 10:58:43;;;;;;;6.90;2.33;;;;;;;5.54;94.92;96690.13;5017505;28;20065;-74
2022/02/22 11:01:10;;;;;;;11.90;2.33;;;;;;;5.80;94.91;96690.75;5021236;28;20038;-74
2022/02/22 11:03:37;;;;;;;17.63;2.80;;;;;;;5.64;93.62;96696.31;5021773;28;20635;-75
2022/02/22 11:06:03;;;;;;;8.93;1.73;;;;;;;5.80;94.30;96690.75;5018102;28;20030;-74
2022/02/22 11:08:31;;;;;;;10.70;2.23;;;;;;;5.84;93.94;96696.56;5034625;28;20108;-75
2022/02/22 11:11:17;;;;;;;10.57;3.20;;;;;;;5.36;94.53;96702.75;5021858;28;20083;-75
2022/02/22 11:13:54;;;;;;;10.47;2.27;;;;;;;5.31;95.42;96699.69;5024280;28;20416;-74
2022/02/22 11:16:19;;;;;;;9.80;2.43;;;;;;;5.33;97.22;96703.03;5044257;28;20128;-74
2022/02/22 11:18:51;;;;;;;12.30;2.53;;;;;;;5.43;98.35;96703.13;5016872;28;20151;-75
2022/02/22 11:21:19;;;;;;;12.13;2.67;;;;;;;5.47;97.02;96693.31;5021393;28;20033;-75
2022/02/22 11:23:45;;;;;;;8.97;1.70;;;;;;;5.51;96.11;96694.75;5024329;28;20740;-76
2022/02/22 11:26:20;;;;;;;8.23;1.80;;;;;;;5.46;97.24;96697.69;5022061;28;20095;-76